createdAt,value
2023-01-06T00:04:20.775Z,86.34
2023-01-06T00:09:42.508Z,85.83
2023-01-06T00:15:04.960Z,86.21
2023-01-06T00:20:26.694Z,86.66
2023-01-06T00:25:51.925Z,86.09
2023-01-06T00:31:15.790Z,86.10
2023-01-06T00:36:37.578Z,86.28
2023-01-06T00:42:05.907Z,86.29
2023-01-06T00:47:27.629Z,86.33
2023-01-06T00:52:49.836Z,85.90
2023-01-06T00:58:11.556Z,85.77
2023-01-06T01:03:34.699Z,85.28
2023-01-06T01:08:58.938Z,86.04
2023-01-06T01:14:20.966Z,85.92
2023-01-06T01:19:42.697Z,86.00
2023-01-06T01:25:04.778Z,86.31
2023-01-06T01:30:26.510Z,86.55
2023-01-06T01:35:48.197Z,87.24
2023-01-06T01:41:14.936Z,86.99
2023-01-06T01:46:40.766Z,87.16
2023-01-06T01:52:03.128Z,86.92
2023-01-06T01:57:38.797Z,86.81
2023-01-06T02:03:00.944Z,86.92
2023-01-06T02:08:35.181Z,86.72
2023-01-06T02:14:06.491Z,87.25
2023-01-06T02:19:50.775Z,86.91
2023-01-06T02:25:30.991Z,87.25
2023-01-06T02:31:14.453Z,87.15
2023-01-06T02:36:45.646Z,87.17
2023-01-06T02:42:32.254Z,87.34
2023-01-06T02:48:08.992Z,87.34
2023-01-06T02:53:41.327Z,87.07
2023-01-06T02:59:07.997Z,87.34
2023-01-06T03:04:36.608Z,86.45
2023-01-06T03:10:01.023Z,87.27
2023-01-06T03:15:24.814Z,86.49
2023-01-06T03:20:49.252Z,86.74
2023-01-06T03:26:11.276Z,86.29
2023-01-06T03:31:43.511Z,86.67
2023-01-06T03:37:14.556Z,86.50
2023-01-06T03:43:00.451Z,86.84
2023-01-06T03:48:34.009Z,87.07
2023-01-06T03:54:05.535Z,87.20
2023-01-06T03:59:31.099Z,87.92
2023-01-06T04:05:11.292Z,87.64
2023-01-06T04:10:33.174Z,87.40
2023-01-06T04:15:54.915Z,87.06
2023-01-06T04:21:17.061Z,88.12
2023-01-06T04:26:38.764Z,87.86
2023-01-06T04:32:00.450Z,87.99
2023-01-06T04:37:22.147Z,88.59
2023-01-06T04:43:02.471Z,88.17
2023-01-06T04:48:24.169Z,87.55
2023-01-06T04:53:45.983Z,88.10
2023-01-06T04:59:07.655Z,87.53
2023-01-06T05:04:34.177Z,87.75
2023-01-06T05:09:58.842Z,87.84
2023-01-06T05:15:20.603Z,88.27
2023-01-06T05:20:42.298Z,88.10
2023-01-06T05:26:04.868Z,88.15
2023-01-06T05:31:26.623Z,87.74
2023-01-06T05:36:48.362Z,87.95
2023-01-06T05:42:10.053Z,87.70
2023-01-06T05:47:31.744Z,88.04
2023-01-06T05:52:53.634Z,88.09
2023-01-06T05:58:15.351Z,87.42
2023-01-06T06:03:37.092Z,87.10
2023-01-06T06:08:58.880Z,87.02
2023-01-06T06:14:20.841Z,87.06
2023-01-06T06:19:42.546Z,86.79
2023-01-06T06:25:04.463Z,86.53
2023-01-06T06:30:26.220Z,86.60
2023-01-06T06:35:57.171Z,86.49
2023-01-06T06:41:19.519Z,86.32
2023-01-06T06:46:41.258Z,86.02
2023-01-06T06:52:03.032Z,86.25
2023-01-06T06:57:24.744Z,85.88
2023-01-06T07:02:50.429Z,85.48
2023-01-06T07:08:12.834Z,84.93
2023-01-06T07:13:34.510Z,84.38
2023-01-06T07:18:56.210Z,85.10
2023-01-06T07:24:17.937Z,84.77
2023-01-06T07:29:39.643Z,84.85
2023-01-06T07:35:01.356Z,85.01
2023-01-06T07:40:23.097Z,84.63
2023-01-06T07:45:47.579Z,84.93
2023-01-06T07:51:09.276Z,85.37
2023-01-06T07:56:31.332Z,86.37
2023-01-06T08:01:53.210Z,88.93
2023-01-06T08:07:16.501Z,90.53
2023-01-06T08:12:38.198Z,94.77
2023-01-06T08:17:59.985Z,96.62
2023-01-06T08:23:21.717Z,98.52
2023-01-06T08:28:45.237Z,99.91
2023-01-06T08:34:07.042Z,100.00
2023-01-06T08:39:28.734Z,100.00
2023-01-06T08:44:50.425Z,99.41
2023-01-06T08:50:12.223Z,98.77
2023-01-06T08:55:34.093Z,98.90
2023-01-06T09:00:55.831Z,98.48
2023-01-06T09:06:18.838Z,97.58
2023-01-06T09:11:45.422Z,97.09
2023-01-06T09:17:07.114Z,96.51
2023-01-06T09:22:28.834Z,95.85
2023-01-06T09:27:50.567Z,95.55
2023-01-06T09:33:12.268Z,94.35
2023-01-06T09:38:34.028Z,93.37
2023-01-06T09:44:08.069Z,91.98
2023-01-06T09:49:52.312Z,93.23
2023-01-06T09:55:48.027Z,91.37
2023-01-06T10:01:16.927Z,87.59
2023-01-06T10:06:48.516Z,87.53
2023-01-06T10:12:47.350Z,87.36
2023-01-06T10:18:33.943Z,87.10
2023-01-06T10:24:03.523Z,87.24
2023-01-06T10:29:32.687Z,89.06
2023-01-06T10:34:56.072Z,89.61
2023-01-06T10:40:26.759Z,88.69
2023-01-06T10:45:49.165Z,87.72
2023-01-06T10:51:33.815Z,85.79
2023-01-06T10:57:02.510Z,81.59
2023-01-06T11:02:24.343Z,81.40
2023-01-06T11:08:01.115Z,79.74
2023-01-06T11:13:34.447Z,80.70
2023-01-06T11:19:07.786Z,79.45
2023-01-06T11:24:30.139Z,79.31
2023-01-06T11:29:51.844Z,79.98
2023-01-06T11:35:21.035Z,79.97
2023-01-06T11:40:45.659Z,78.33
2023-01-06T11:46:09.750Z,79.25
2023-01-06T11:51:40.505Z,79.76
2023-01-06T11:57:02.176Z,79.52
2023-01-06T12:02:32.945Z,77.55
2023-01-06T12:07:57.786Z,77.68
2023-01-06T12:13:19.955Z,77.93
2023-01-06T12:18:42.743Z,77.85
2023-01-06T12:24:07.355Z,77.13
2023-01-06T12:29:32.848Z,77.19
2023-01-06T12:35:00.144Z,78.00
2023-01-06T12:40:31.834Z,78.23
2023-01-06T12:46:05.148Z,78.97
2023-01-06T12:51:35.374Z,78.79
2023-01-06T12:57:35.680Z,78.05
2023-01-06T13:03:06.370Z,78.22
2023-01-06T13:08:59.221Z,79.84
2023-01-06T13:14:47.964Z,78.44
2023-01-06T13:20:31.570Z,77.78
2023-01-06T13:25:53.205Z,78.00
2023-01-06T13:31:23.136Z,78.81
2023-01-06T13:36:59.312Z,78.49
2023-01-06T13:42:33.034Z,79.53
2023-01-06T13:47:55.783Z,80.03
2023-01-06T13:53:21.413Z,80.72
2023-01-06T13:58:44.849Z,79.43
2023-01-06T14:04:42.559Z,79.22
2023-01-06T14:10:07.719Z,80.31
2023-01-06T14:15:31.951Z,78.64
2023-01-06T14:21:00.730Z,78.33
2023-01-06T14:26:51.283Z,78.79
2023-01-06T14:32:16.867Z,78.29
2023-01-06T14:37:43.810Z,78.71
2023-01-06T14:43:28.752Z,80.08
2023-01-06T14:48:57.536Z,79.78
2023-01-06T14:54:37.505Z,79.11
2023-01-06T15:00:12.104Z,79.71
2023-01-06T15:05:36.500Z,79.32
2023-01-06T15:11:33.316Z,79.85
2023-01-06T15:16:57.240Z,79.66
2023-01-06T15:22:22.820Z,79.97
2023-01-06T15:27:49.263Z,80.89
2023-01-06T15:33:12.256Z,80.44
2023-01-06T15:38:36.260Z,80.97
2023-01-06T15:43:58.887Z,81.35
2023-01-06T15:49:30.734Z,81.75
2023-01-06T15:54:55.469Z,80.14
2023-01-06T16:00:24.059Z,80.39
2023-01-06T16:05:50.911Z,80.17
2023-01-06T16:11:37.997Z,80.03
2023-01-06T16:17:24.414Z,79.34
2023-01-06T16:22:52.324Z,78.76
2023-01-06T16:28:20.666Z,79.61
2023-01-06T16:33:45.859Z,81.24
2023-01-06T16:39:07.643Z,82.04
2023-01-06T16:44:32.169Z,82.08
2023-01-06T16:49:53.971Z,82.72
2023-01-06T16:55:17.794Z,82.64
2023-01-06T17:00:40.619Z,82.38
2023-01-06T17:06:02.384Z,82.66
2023-01-06T17:11:26.860Z,82.62
2023-01-06T17:16:50.564Z,82.44
2023-01-06T17:22:29.143Z,82.56
2023-01-06T17:27:50.834Z,83.03
2023-01-06T17:33:14.327Z,82.79
2023-01-06T17:38:36.466Z,83.36
2023-01-06T17:43:58.175Z,84.25
2023-01-06T17:49:19.780Z,83.29
2023-01-06T17:55:00.920Z,82.61
2023-01-06T18:00:24.797Z,83.20
2023-01-06T18:06:26.566Z,83.25
2023-01-06T18:11:55.038Z,83.44
2023-01-06T18:17:24.329Z,83.10
2023-01-06T18:22:46.099Z,82.90
2023-01-06T18:28:18.253Z,83.22
2023-01-06T18:33:40.001Z,83.59
2023-01-06T18:39:01.754Z,83.98
2023-01-06T18:44:24.424Z,84.15
2023-01-06T18:49:46.947Z,84.36
2023-01-06T18:55:21.954Z,84.53
2023-01-06T19:00:48.188Z,84.45
2023-01-06T19:06:16.033Z,84.94
2023-01-06T19:11:37.862Z,84.70
2023-01-06T19:16:59.591Z,84.38
2023-01-06T19:22:36.001Z,84.71
2023-01-06T19:27:59.838Z,83.51
2023-01-06T19:33:31.855Z,84.28
2023-01-06T19:38:55.626Z,84.52
2023-01-06T19:44:17.424Z,84.59
2023-01-06T19:49:41.441Z,84.80
2023-01-06T19:55:25.743Z,84.32
2023-01-06T20:00:52.352Z,85.25
2023-01-06T20:06:16.372Z,85.55
2023-01-06T20:11:38.193Z,85.53
2023-01-06T20:17:00.227Z,85.14
2023-01-06T20:22:22.623Z,85.30
2023-01-06T20:27:44.565Z,85.21
2023-01-06T20:33:06.921Z,85.25
2023-01-06T20:38:28.626Z,84.60
2023-01-06T20:43:50.363Z,83.56
2023-01-06T20:49:13.084Z,82.40
2023-01-06T20:54:34.918Z,80.66
2023-01-06T20:59:56.709Z,80.42
2023-01-06T21:05:20.719Z,79.93
2023-01-06T21:10:42.456Z,80.72
2023-01-06T21:16:04.439Z,80.81
2023-01-06T21:21:26.180Z,80.77
2023-01-06T21:26:47.889Z,80.27
2023-01-06T21:32:10.208Z,79.78
2023-01-06T21:37:31.928Z,79.14
2023-01-06T21:43:08.535Z,79.47
2023-01-06T21:48:30.341Z,78.91
2023-01-06T21:53:52.451Z,77.18
2023-01-06T21:59:14.302Z,78.36
2023-01-06T22:04:36.252Z,77.87
2023-01-06T22:09:58.209Z,77.90
2023-01-06T22:15:21.361Z,76.65
2023-01-06T22:20:43.959Z,76.57
2023-01-06T22:26:06.077Z,74.42
2023-01-06T22:31:27.807Z,74.59
2023-01-06T22:36:49.512Z,72.54
2023-01-06T22:42:11.303Z,74.46
2023-01-06T22:47:33.100Z,73.87
2023-01-06T22:52:55.419Z,73.24
2023-01-06T22:58:17.108Z,73.54
2023-01-06T23:03:38.798Z,73.42
2023-01-06T23:09:01.237Z,73.50
2023-01-06T23:14:23.094Z,73.91
2023-01-06T23:19:44.835Z,74.17
2023-01-06T23:25:07.081Z,74.04
2023-01-06T23:30:29.446Z,74.49
2023-01-06T23:35:51.158Z,73.82
2023-01-06T23:41:17.935Z,73.22
2023-01-06T23:46:40.315Z,73.70
2023-01-06T23:52:02.084Z,73.21
2023-01-06T23:57:23.773Z,73.50
